sensor_id;sensor_type;location;lat;lon;timestamp;P1;durP1;ratioP1;P2;durP2;ratioP2
15120;SDS011;7661;48.904;9.414;2022-08-26T00:00:44;20.00;;;8.47;;
15120;SDS011;7661;48.904;9.414;2022-08-26T00:03:56;13.17;;;8.70;;
15120;SDS011;7661;48.904;9.414;2022-08-26T00:06:38;11.07;;;7.87;;
15120;SDS011;7661;48.904;9.414;2022-08-26T00:09:26;11.67;;;8.50;;
15120;SDS011;7661;48.904;9.414;2022-08-26T00:11:57;17.30;;;8.60;;
15120;SDS011;7661;48.904;9.414;2022-08-26T00:14:24;14.00;;;8.07;;
15120;SDS011;7661;48.904;9.414;2022-08-26T00:16:51;15.07;;;7.20;;
15120;SDS011;7661;48.904;9.414;2022-08-26T00:19:19;15.17;;;9.10;;
15120;SDS011;7661;48.904;9.414;2022-08-26T00:21:48;15.73;;;7.57;;
15120;SDS011;7661;48.904;9.414;2022-08-26T00:24:16;15.93;;;7.87;;
15120;SDS011;7661;48.904;9.414;2022-08-26T00:26:45;13.33;;;7.97;;
15120;SDS011;7661;48.904;9.414;2022-08-26T00:29:16;11.40;;;7.50;;
15120;SDS011;7661;48.904;9.414;2022-08-26T00:31:44;15.10;;;8.17;;
15120;SDS011;7661;48.904;9.414;2022-08-26T00:34:12;14.60;;;8.87;;
15120;SDS011;7661;48.904;9.414;2022-08-26T00:36:41;13.30;;;7.80;;
15120;SDS011;7661;48.904;9.414;2022-08-26T00:39:10;12.50;;;7.97;;
15120;SDS011;7661;48.904;9.414;2022-08-26T00:41:38;11.77;;;7.40;;
15120;SDS011;7661;48.904;9.414;2022-08-26T00:44:07;17.03;;;8.13;;
15120;SDS011;7661;48.904;9.414;2022-08-26T00:46:56;16.10;;;8.17;;
15120;SDS011;7661;48.904;9.414;2022-08-26T00:49:30;12.80;;;8.60;;
15120;SDS011;7661;48.904;9.414;2022-08-26T00:52:20;10.63;;;7.87;;
15120;SDS011;7661;48.904;9.414;2022-08-26T00:54:50;17.37;;;9.93;;
15120;SDS011;7661;48.904;9.414;2022-08-26T00:57:39;23.13;;;11.20;;
15120;SDS011;7661;48.904;9.414;2022-08-26T01:00:09;24.13;;;12.10;;
15120;SDS011;7661;48.904;9.414;2022-08-26T01:02:53;16.60;;;10.50;;
15120;SDS011;7661;48.904;9.414;2022-08-26T01:05:22;14.97;;;9.63;;
15120;SDS011;7661;48.904;9.414;2022-08-26T01:07:49;15.23;;;10.23;;
15120;SDS011;7661;48.904;9.414;2022-08-26T01:10:19;13.40;;;9.37;;
15120;SDS011;7661;48.904;9.414;2022-08-26T01:12:53;18.13;;;10.23;;
15120;SDS011;7661;48.904;9.414;2022-08-26T01:15:44;14.53;;;9.60;;
15120;SDS011;7661;48.904;9.414;2022-08-26T01:18:44;18.10;;;9.33;;
15120;SDS011;7661;48.904;9.414;2022-08-26T01:21:14;14.00;;;8.20;;
15120;SDS011;7661;48.904;9.414;2022-08-26T01:24:01;16.53;;;8.60;;
15120;SDS011;7661;48.904;9.414;2022-08-26T01:27:00;14.60;;;9.07;;
15120;SDS011;7661;48.904;9.414;2022-08-26T01:30:23;13.87;;;8.63;;
15120;SDS011;7661;48.904;9.414;2022-08-26T01:32:52;16.10;;;9.30;;
15120;SDS011;7661;48.904;9.414;2022-08-26T01:35:21;19.07;;;9.10;;
15120;SDS011;7661;48.904;9.414;2022-08-26T01:38:10;18.63;;;9.47;;
15120;SDS011;7661;48.904;9.414;2022-08-26T01:40:40;17.23;;;9.93;;
15120;SDS011;7661;48.904;9.414;2022-08-26T01:43:09;17.53;;;9.37;;
15120;SDS011;7661;48.904;9.414;2022-08-26T01:45:41;11.97;;;8.47;;
15120;SDS011;7661;48.904;9.414;2022-08-26T01:48:09;15.37;;;9.20;;
15120;SDS011;7661;48.904;9.414;2022-08-26T01:50:43;13.07;;;9.00;;
15120;SDS011;7661;48.904;9.414;2022-08-26T01:53:13;17.00;;;9.73;;
15120;SDS011;7661;48.904;9.414;2022-08-26T01:55:45;16.77;;;9.87;;
15120;SDS011;7661;48.904;9.414;2022-08-26T01:58:17;11.77;;;8.70;;
15120;SDS011;7661;48.904;9.414;2022-08-26T02:01:03;17.23;;;8.67;;
15120;SDS011;7661;48.904;9.414;2022-08-26T02:03:33;13.70;;;9.40;;
15120;SDS011;7661;48.904;9.414;2022-08-26T02:06:16;20.17;;;8.80;;
15120;SDS011;7661;48.904;9.414;2022-08-26T02:08:49;18.60;;;10.20;;
15120;SDS011;7661;48.904;9.414;2022-08-26T02:11:21;14.57;;;10.13;;
15120;SDS011;7661;48.904;9.414;2022-08-26T02:13:49;21.00;;;8.80;;
15120;SDS011;7661;48.904;9.414;2022-08-26T02:16:21;13.00;;;8.43;;
15120;SDS011;7661;48.904;9.414;2022-08-26T02:19:02;18.33;;;9.30;;
15120;SDS011;7661;48.904;9.414;2022-08-26T02:21:55;15.17;;;8.60;;
15120;SDS011;7661;48.904;9.414;2022-08-26T02:24:47;13.40;;;9.00;;
15120;SDS011;7661;48.904;9.414;2022-08-26T02:27:18;16.07;;;9.23;;
15120;SDS011;7661;48.904;9.414;2022-08-26T02:29:48;19.30;;;8.90;;
15120;SDS011;7661;48.904;9.414;2022-08-26T02:32:42;14.90;;;9.83;;
15120;SDS011;7661;48.904;9.414;2022-08-26T02:35:46;15.70;;;9.70;;
15120;SDS011;7661;48.904;9.414;2022-08-26T02:38:13;18.60;;;9.87;;
15120;SDS011;7661;48.904;9.414;2022-08-26T02:40:40;17.00;;;8.10;;
15120;SDS011;7661;48.904;9.414;2022-08-26T02:43:09;14.70;;;8.87;;
15120;SDS011;7661;48.904;9.414;2022-08-26T02:45:37;13.80;;;9.03;;
15120;SDS011;7661;48.904;9.414;2022-08-26T02:48:06;13.27;;;8.93;;
15120;SDS011;7661;48.904;9.414;2022-08-26T02:50:58;18.40;;;10.40;;
15120;SDS011;7661;48.904;9.414;2022-08-26T02:53:26;18.47;;;9.20;;
15120;SDS011;7661;48.904;9.414;2022-08-26T02:55:53;16.93;;;8.70;;
15120;SDS011;7661;48.904;9.414;2022-08-26T03:04:27;18.70;;;8.97;;
15120;SDS011;7661;48.904;9.414;2022-08-26T03:06:55;15.77;;;10.00;;
15120;SDS011;7661;48.904;9.414;2022-08-26T03:09:22;16.90;;;10.00;;
15120;SDS011;7661;48.904;9.414;2022-08-26T03:11:50;14.03;;;9.30;;
15120;SDS011;7661;48.904;9.414;2022-08-26T03:14:19;12.90;;;8.63;;
15120;SDS011;7661;48.904;9.414;2022-08-26T03:16:48;17.17;;;9.77;;
15120;SDS011;7661;48.904;9.414;2022-08-26T03:19:16;23.13;;;10.47;;
15120;SDS011;7661;48.904;9.414;2022-08-26T03:21:45;17.07;;;10.80;;
15120;SDS011;7661;48.904;9.414;2022-08-26T03:24:13;16.60;;;9.50;;
15120;SDS011;7661;48.904;9.414;2022-08-26T03:26:41;17.97;;;10.23;;
15120;SDS011;7661;48.904;9.414;2022-08-26T03:29:08;20.90;;;10.70;;
15120;SDS011;7661;48.904;9.414;2022-08-26T03:31:53;21.43;;;10.33;;
15120;SDS011;7661;48.904;9.414;2022-08-26T03:34:21;18.70;;;10.40;;
15120;SDS011;7661;48.904;9.414;2022-08-26T03:36:50;15.70;;;9.17;;
15120;SDS011;7661;48.904;9.414;2022-08-26T03:39:17;19.17;;;11.17;;
15120;SDS011;7661;48.904;9.414;2022-08-26T03:41:44;18.00;;;10.37;;
15120;SDS011;7661;48.904;9.414;2022-08-26T03:44:12;19.50;;;10.70;;
15120;SDS011;7661;48.904;9.414;2022-08-26T03:46:39;25.97;;;11.50;;
15120;SDS011;7661;48.904;9.414;2022-08-26T03:49:06;24.07;;;10.20;;
15120;SDS011;7661;48.904;9.414;2022-08-26T03:51:34;17.63;;;9.20;;
15120;SDS011;7661;48.904;9.414;2022-08-26T03:54:03;22.80;;;10.80;;
15120;SDS011;7661;48.904;9.414;2022-08-26T03:56:31;22.03;;;11.03;;
15120;SDS011;7661;48.904;9.414;2022-08-26T03:58:59;17.50;;;10.73;;
15120;SDS011;7661;48.904;9.414;2022-08-26T04:01:26;21.60;;;11.30;;
15120;SDS011;7661;48.904;9.414;2022-08-26T04:03:54;21.37;;;11.87;;
15120;SDS011;7661;48.904;9.414;2022-08-26T04:06:23;20.60;;;11.00;;
15120;SDS011;7661;48.904;9.414;2022-08-26T04:08:52;16.10;;;10.73;;
15120;SDS011;7661;48.904;9.414;2022-08-26T04:11:22;18.70;;;11.57;;
15120;SDS011;7661;48.904;9.414;2022-08-26T04:13:54;23.10;;;10.00;;
15120;SDS011;7661;48.904;9.414;2022-08-26T04:16:23;26.43;;;10.83;;
15120;SDS011;7661;48.904;9.414;2022-08-26T04:18:51;23.83;;;11.60;;
15120;SDS011;7661;48.904;9.414;2022-08-26T04:21:17;22.30;;;10.30;;
15120;SDS011;7661;48.904;9.414;2022-08-26T04:23:44;21.10;;;10.80;;
15120;SDS011;7661;48.904;9.414;2022-08-26T04:26:11;23.67;;;10.93;;
15120;SDS011;7661;48.904;9.414;2022-08-26T04:28:39;20.33;;;10.27;;
15120;SDS011;7661;48.904;9.414;2022-08-26T04:31:09;18.73;;;10.43;;
15120;SDS011;7661;48.904;9.414;2022-08-26T04:33:36;22.03;;;10.90;;
15120;SDS011;7661;48.904;9.414;2022-08-26T04:36:03;29.13;;;10.80;;
15120;SDS011;7661;48.904;9.414;2022-08-26T04:38:30;18.40;;;10.13;;
15120;SDS011;7661;48.904;9.414;2022-08-26T04:40:58;24.43;;;11.17;;
15120;SDS011;7661;48.904;9.414;2022-08-26T04:43:25;22.10;;;10.57;;
15120;SDS011;7661;48.904;9.414;2022-08-26T04:45:56;18.77;;;10.60;;
15120;SDS011;7661;48.904;9.414;2022-08-26T04:48:24;19.83;;;11.80;;
15120;SDS011;7661;48.904;9.414;2022-08-26T04:50:53;18.30;;;11.80;;
15120;SDS011;7661;48.904;9.414;2022-08-26T04:53:20;27.03;;;12.17;;
15120;SDS011;7661;48.904;9.414;2022-08-26T04:55:47;21.73;;;10.53;;
15120;SDS011;7661;48.904;9.414;2022-08-26T04:58:14;21.00;;;11.30;;
15120;SDS011;7661;48.904;9.414;2022-08-26T05:00:42;26.80;;;12.13;;
15120;SDS011;7661;48.904;9.414;2022-08-26T05:03:11;20.60;;;10.17;;
15120;SDS011;7661;48.904;9.414;2022-08-26T05:05:39;21.10;;;9.53;;
15120;SDS011;7661;48.904;9.414;2022-08-26T05:08:07;17.50;;;11.20;;
15120;SDS011;7661;48.904;9.414;2022-08-26T05:10:37;19.60;;;11.63;;
15120;SDS011;7661;48.904;9.414;2022-08-26T05:13:05;28.17;;;12.47;;
15120;SDS011;7661;48.904;9.414;2022-08-26T05:15:32;18.53;;;12.97;;
15120;SDS011;7661;48.904;9.414;2022-08-26T05:18:00;23.77;;;11.50;;
15120;SDS011;7661;48.904;9.414;2022-08-26T05:20:29;22.53;;;10.27;;
15120;SDS011;7661;48.904;9.414;2022-08-26T05:22:57;21.37;;;11.50;;
15120;SDS011;7661;48.904;9.414;2022-08-26T05:25:24;19.00;;;11.23;;
15120;SDS011;7661;48.904;9.414;2022-08-26T05:27:51;19.83;;;11.07;;
15120;SDS011;7661;48.904;9.414;2022-08-26T05:30:18;19.00;;;10.40;;
15120;SDS011;7661;48.904;9.414;2022-08-26T05:32:45;17.70;;;11.50;;
15120;SDS011;7661;48.904;9.414;2022-08-26T05:35:12;19.03;;;9.90;;
15120;SDS011;7661;48.904;9.414;2022-08-26T05:37:41;19.93;;;11.40;;
15120;SDS011;7661;48.904;9.414;2022-08-26T05:40:08;15.47;;;10.90;;
15120;SDS011;7661;48.904;9.414;2022-08-26T05:42:35;17.10;;;11.87;;
15120;SDS011;7661;48.904;9.414;2022-08-26T05:45:02;18.57;;;11.47;;
15120;SDS011;7661;48.904;9.414;2022-08-26T05:47:30;15.40;;;10.97;;
15120;SDS011;7661;48.904;9.414;2022-08-26T05:49:56;28.53;;;11.43;;
15120;SDS011;7661;48.904;9.414;2022-08-26T05:52:24;18.70;;;11.50;;
15120;SDS011;7661;48.904;9.414;2022-08-26T05:54:52;21.07;;;11.47;;
15120;SDS011;7661;48.904;9.414;2022-08-26T05:57:19;22.60;;;11.50;;
15120;SDS011;7661;48.904;9.414;2022-08-26T05:59:46;17.57;;;10.53;;
15120;SDS011;7661;48.904;9.414;2022-08-26T06:02:13;18.03;;;11.27;;
15120;SDS011;7661;48.904;9.414;2022-08-26T06:04:40;20.03;;;10.23;;
15120;SDS011;7661;48.904;9.414;2022-08-26T06:07:07;18.80;;;10.60;;
15120;SDS011;7661;48.904;9.414;2022-08-26T06:09:35;16.20;;;10.07;;
15120;SDS011;7661;48.904;9.414;2022-08-26T06:12:03;19.20;;;11.97;;
15120;SDS011;7661;48.904;9.414;2022-08-26T06:14:30;22.50;;;11.83;;
15120;SDS011;7661;48.904;9.414;2022-08-26T06:16:57;15.83;;;10.57;;
15120;SDS011;7661;48.904;9.414;2022-08-26T06:19:24;19.47;;;10.80;;
15120;SDS011;7661;48.904;9.414;2022-08-26T06:21:51;25.50;;;11.70;;
15120;SDS011;7661;48.904;9.414;2022-08-26T06:24:18;17.13;;;10.60;;
15120;SDS011;7661;48.904;9.414;2022-08-26T06:27:04;18.60;;;10.90;;
15120;SDS011;7661;48.904;9.414;2022-08-26T06:29:36;25.57;;;11.77;;
15120;SDS011;7661;48.904;9.414;2022-08-26T06:32:03;18.97;;;11.53;;
15120;SDS011;7661;48.904;9.414;2022-08-26T06:34:30;15.83;;;10.83;;
15120;SDS011;7661;48.904;9.414;2022-08-26T06:36:58;30.90;;;11.90;;
15120;SDS011;7661;48.904;9.414;2022-08-26T06:39:27;23.77;;;11.20;;
15120;SDS011;7661;48.904;9.414;2022-08-26T06:41:55;21.00;;;11.37;;
15120;SDS011;7661;48.904;9.414;2022-08-26T06:44:23;26.23;;;11.97;;
15120;SDS011;7661;48.904;9.414;2022-08-26T06:46:51;18.60;;;11.10;;
15120;SDS011;7661;48.904;9.414;2022-08-26T06:49:17;17.33;;;11.47;;
15120;SDS011;7661;48.904;9.414;2022-08-26T06:51:44;24.93;;;12.60;;
15120;SDS011;7661;48.904;9.414;2022-08-26T06:54:11;24.50;;;11.40;;
15120;SDS011;7661;48.904;9.414;2022-08-26T06:56:39;24.40;;;11.43;;
15120;SDS011;7661;48.904;9.414;2022-08-26T06:59:08;19.30;;;11.13;;
15120;SDS011;7661;48.904;9.414;2022-08-26T07:01:37;23.13;;;12.17;;
15120;SDS011;7661;48.904;9.414;2022-08-26T07:04:08;18.67;;;11.07;;
15120;SDS011;7661;48.904;9.414;2022-08-26T07:06:36;19.43;;;11.60;;
15120;SDS011;7661;48.904;9.414;2022-08-26T07:09:05;26.23;;;11.10;;
15120;SDS011;7661;48.904;9.414;2022-08-26T07:11:33;24.70;;;12.47;;
15120;SDS011;7661;48.904;9.414;2022-08-26T07:14:01;17.83;;;11.50;;
15120;SDS011;7661;48.904;9.414;2022-08-26T07:16:28;28.77;;;10.80;;
15120;SDS011;7661;48.904;9.414;2022-08-26T07:18:57;28.03;;;11.27;;
15120;SDS011;7661;48.904;9.414;2022-08-26T07:21:24;18.00;;;10.90;;
15120;SDS011;7661;48.904;9.414;2022-08-26T07:23:51;26.97;;;11.60;;
15120;SDS011;7661;48.904;9.414;2022-08-26T07:26:20;21.93;;;11.00;;
15120;SDS011;7661;48.904;9.414;2022-08-26T07:28:49;21.53;;;10.97;;
15120;SDS011;7661;48.904;9.414;2022-08-26T07:31:18;26.80;;;10.83;;
15120;SDS011;7661;48.904;9.414;2022-08-26T07:33:46;23.93;;;10.93;;
15120;SDS011;7661;48.904;9.414;2022-08-26T07:36:16;25.10;;;11.37;;
15120;SDS011;7661;48.904;9.414;2022-08-26T07:38:44;28.87;;;11.30;;
15120;SDS011;7661;48.904;9.414;2022-08-26T07:41:12;19.70;;;10.50;;
15120;SDS011;7661;48.904;9.414;2022-08-26T07:43:40;27.70;;;10.30;;
15120;SDS011;7661;48.904;9.414;2022-08-26T07:46:07;24.67;;;11.13;;
15120;SDS011;7661;48.904;9.414;2022-08-26T07:48:34;17.70;;;10.10;;
15120;SDS011;7661;48.904;9.414;2022-08-26T07:51:02;19.63;;;9.87;;
15120;SDS011;7661;48.904;9.414;2022-08-26T07:53:31;19.77;;;10.00;;
15120;SDS011;7661;48.904;9.414;2022-08-26T07:55:59;18.17;;;10.20;;
15120;SDS011;7661;48.904;9.414;2022-08-26T07:58:26;28.63;;;9.80;;
15120;SDS011;7661;48.904;9.414;2022-08-26T08:00:53;20.10;;;9.43;;
15120;SDS011;7661;48.904;9.414;2022-08-26T08:03:20;19.73;;;9.43;;
15120;SDS011;7661;48.904;9.414;2022-08-26T08:05:47;29.37;;;9.57;;
15120;SDS011;7661;48.904;9.414;2022-08-26T08:08:14;16.57;;;9.27;;
15120;SDS011;7661;48.904;9.414;2022-08-26T08:10:43;19.10;;;9.37;;
15120;SDS011;7661;48.904;9.414;2022-08-26T08:13:10;26.40;;;8.70;;
15120;SDS011;7661;48.904;9.414;2022-08-26T08:15:37;24.07;;;8.83;;
15120;SDS011;7661;48.904;9.414;2022-08-26T08:18:04;16.00;;;8.37;;
15120;SDS011;7661;48.904;9.414;2022-08-26T08:20:32;21.57;;;9.13;;
15120;SDS011;7661;48.904;9.414;2022-08-26T08:23:00;23.67;;;9.07;;
15120;SDS011;7661;48.904;9.414;2022-08-26T08:25:28;18.87;;;7.87;;
15120;SDS011;7661;48.904;9.414;2022-08-26T08:27:56;21.97;;;8.60;;
15120;SDS011;7661;48.904;9.414;2022-08-26T08:30:24;19.53;;;8.33;;
15120;SDS011;7661;48.904;9.414;2022-08-26T08:32:50;17.07;;;8.67;;
15120;SDS011;7661;48.904;9.414;2022-08-26T08:35:23;13.30;;;7.63;;
15120;SDS011;7661;48.904;9.414;2022-08-26T08:37:55;21.10;;;8.07;;
15120;SDS011;7661;48.904;9.414;2022-08-26T08:40:23;17.37;;;8.07;;
15120;SDS011;7661;48.904;9.414;2022-08-26T08:42:54;19.37;;;8.07;;
15120;SDS011;7661;48.904;9.414;2022-08-26T08:45:30;19.23;;;8.73;;
15120;SDS011;7661;48.904;9.414;2022-08-26T08:48:00;25.03;;;7.73;;
15120;SDS011;7661;48.904;9.414;2022-08-26T08:50:31;19.20;;;9.10;;
15120;SDS011;7661;48.904;9.414;2022-08-26T08:53:07;21.47;;;8.10;;
15120;SDS011;7661;48.904;9.414;2022-08-26T08:58:29;19.90;;;7.47;;
15120;SDS011;7661;48.904;9.414;2022-08-26T09:01:07;27.33;;;8.03;;
15120;SDS011;7661;48.904;9.414;2022-08-26T09:03:42;26.50;;;8.53;;
15120;SDS011;7661;48.904;9.414;2022-08-26T09:06:18;22.63;;;7.40;;
15120;SDS011;7661;48.904;9.414;2022-08-26T09:08:45;16.50;;;7.30;;
15120;SDS011;7661;48.904;9.414;2022-08-26T09:11:14;17.63;;;7.70;;
15120;SDS011;7661;48.904;9.414;2022-08-26T09:13:46;36.03;;;8.30;;
15120;SDS011;7661;48.904;9.414;2022-08-26T09:16:15;21.33;;;7.00;;
15120;SDS011;7661;48.904;9.414;2022-08-26T09:18:50;22.03;;;7.87;;
15120;SDS011;7661;48.904;9.414;2022-08-26T09:21:30;17.27;;;7.73;;
15120;SDS011;7661;48.904;9.414;2022-08-26T09:23:59;21.17;;;8.47;;
15120;SDS011;7661;48.904;9.414;2022-08-26T09:26:28;16.37;;;8.10;;
15120;SDS011;7661;48.904;9.414;2022-08-26T09:29:12;17.20;;;7.53;;
15120;SDS011;7661;48.904;9.414;2022-08-26T09:31:44;21.77;;;8.10;;
15120;SDS011;7661;48.904;9.414;2022-08-26T09:34:12;15.07;;;7.40;;
15120;SDS011;7661;48.904;9.414;2022-08-26T09:36:42;15.73;;;7.63;;
15120;SDS011;7661;48.904;9.414;2022-08-26T09:42:02;15.43;;;7.77;;
15120;SDS011;7661;48.904;9.414;2022-08-26T09:44:33;22.80;;;8.07;;
15120;SDS011;7661;48.904;9.414;2022-08-26T09:47:01;19.33;;;7.50;;
15120;SDS011;7661;48.904;9.414;2022-08-26T09:49:31;16.40;;;7.60;;
15120;SDS011;7661;48.904;9.414;2022-08-26T09:54:56;28.97;;;8.43;;
15120;SDS011;7661;48.904;9.414;2022-08-26T09:57:26;20.33;;;7.53;;
15120;SDS011;7661;48.904;9.414;2022-08-26T09:59:56;30.57;;;9.80;;
15120;SDS011;7661;48.904;9.414;2022-08-26T10:02:35;25.17;;;10.90;;
15120;SDS011;7661;48.904;9.414;2022-08-26T10:05:07;30.10;;;11.40;;
15120;SDS011;7661;48.904;9.414;2022-08-26T10:07:41;42.37;;;13.50;;
15120;SDS011;7661;48.904;9.414;2022-08-26T10:10:13;37.23;;;12.80;;
15120;SDS011;7661;48.904;9.414;2022-08-26T10:12:58;31.47;;;12.73;;
15120;SDS011;7661;48.904;9.414;2022-08-26T10:15:32;27.90;;;10.03;;
15120;SDS011;7661;48.904;9.414;2022-08-26T10:18:08;17.67;;;5.50;;
15120;SDS011;7661;48.904;9.414;2022-08-26T10:20:42;22.60;;;7.43;;
15120;SDS011;7661;48.904;9.414;2022-08-26T10:23:16;23.20;;;8.20;;
15120;SDS011;7661;48.904;9.414;2022-08-26T10:25:47;48.70;;;12.90;;
15120;SDS011;7661;48.904;9.414;2022-08-26T10:28:20;21.97;;;8.90;;
15120;SDS011;7661;48.904;9.414;2022-08-26T10:30:57;74.73;;;13.00;;
15120;SDS011;7661;48.904;9.414;2022-08-26T10:33:28;20.00;;;8.33;;
15120;SDS011;7661;48.904;9.414;2022-08-26T10:35:55;9.70;;;4.70;;
15120;SDS011;7661;48.904;9.414;2022-08-26T10:38:25;12.70;;;6.20;;
15120;SDS011;7661;48.904;9.414;2022-08-26T10:40:59;12.57;;;5.70;;
15120;SDS011;7661;48.904;9.414;2022-08-26T10:43:32;15.97;;;6.67;;
15120;SDS011;7661;48.904;9.414;2022-08-26T10:46:07;14.03;;;7.10;;
15120;SDS011;7661;48.904;9.414;2022-08-26T10:48:41;13.67;;;6.03;;
15120;SDS011;7661;48.904;9.414;2022-08-26T10:51:11;16.53;;;7.50;;
15120;SDS011;7661;48.904;9.414;2022-08-26T10:53:43;15.30;;;8.40;;
15120;SDS011;7661;48.904;9.414;2022-08-26T10:56:24;22.00;;;7.47;;
15120;SDS011;7661;48.904;9.414;2022-08-26T10:59:00;15.57;;;7.97;;
15120;SDS011;7661;48.904;9.414;2022-08-26T11:01:37;21.57;;;9.30;;
15120;SDS011;7661;48.904;9.414;2022-08-26T11:10:05;17.40;;;8.90;;
15120;SDS011;7661;48.904;9.414;2022-08-26T11:12:47;24.53;;;10.80;;
15120;SDS011;7661;48.904;9.414;2022-08-26T11:18:37;16.23;;;10.30;;
15120;SDS011;7661;48.904;9.414;2022-08-26T11:24:08;19.97;;;10.87;;
15120;SDS011;7661;48.904;9.414;2022-08-26T11:27:03;25.27;;;11.80;;
15120;SDS011;7661;48.904;9.414;2022-08-26T11:32:24;24.70;;;14.07;;
15120;SDS011;7661;48.904;9.414;2022-08-26T11:35:11;23.37;;;13.70;;
15120;SDS011;7661;48.904;9.414;2022-08-26T11:38:00;23.30;;;13.37;;
15120;SDS011;7661;48.904;9.414;2022-08-26T11:40:30;25.47;;;12.47;;
15120;SDS011;7661;48.904;9.414;2022-08-26T11:42:58;26.30;;;11.93;;
15120;SDS011;7661;48.904;9.414;2022-08-26T11:45:30;25.80;;;10.20;;
15120;SDS011;7661;48.904;9.414;2022-08-26T11:48:12;20.60;;;10.63;;
15120;SDS011;7661;48.904;9.414;2022-08-26T11:50:48;16.33;;;8.00;;
15120;SDS011;7661;48.904;9.414;2022-08-26T11:53:17;18.00;;;8.47;;
15120;SDS011;7661;48.904;9.414;2022-08-26T11:55:45;23.03;;;7.80;;
15120;SDS011;7661;48.904;9.414;2022-08-26T11:58:12;19.13;;;7.70;;
15120;SDS011;7661;48.904;9.414;2022-08-26T12:00:46;17.00;;;8.23;;
15120;SDS011;7661;48.904;9.414;2022-08-26T12:03:17;20.77;;;9.13;;
15120;SDS011;7661;48.904;9.414;2022-08-26T12:05:48;14.50;;;8.30;;
15120;SDS011;7661;48.904;9.414;2022-08-26T12:08:18;17.93;;;8.53;;
15120;SDS011;7661;48.904;9.414;2022-08-26T12:10:48;24.40;;;9.20;;
15120;SDS011;7661;48.904;9.414;2022-08-26T12:13:26;21.93;;;8.80;;
15120;SDS011;7661;48.904;9.414;2022-08-26T12:15:54;19.70;;;8.20;;
15120;SDS011;7661;48.904;9.414;2022-08-26T12:18:24;18.53;;;7.83;;
15120;SDS011;7661;48.904;9.414;2022-08-26T12:20:53;19.50;;;7.77;;
15120;SDS011;7661;48.904;9.414;2022-08-26T12:23:24;20.07;;;8.10;;
15120;SDS011;7661;48.904;9.414;2022-08-26T12:26:00;14.57;;;7.57;;
15120;SDS011;7661;48.904;9.414;2022-08-26T12:28:29;23.97;;;8.33;;
15120;SDS011;7661;48.904;9.414;2022-08-26T12:30:59;15.27;;;8.07;;
15120;SDS011;7661;48.904;9.414;2022-08-26T12:33:27;14.70;;;7.50;;
15120;SDS011;7661;48.904;9.414;2022-08-26T12:35:56;26.60;;;9.13;;
15120;SDS011;7661;48.904;9.414;2022-08-26T12:38:24;15.10;;;8.50;;
15120;SDS011;7661;48.904;9.414;2022-08-26T12:40:53;16.60;;;9.27;;
15120;SDS011;7661;48.904;9.414;2022-08-26T12:43:37;19.33;;;8.93;;
15120;SDS011;7661;48.904;9.414;2022-08-26T12:46:06;18.40;;;8.70;;
15120;SDS011;7661;48.904;9.414;2022-08-26T12:48:35;16.43;;;8.10;;
15120;SDS011;7661;48.904;9.414;2022-08-26T12:51:06;16.40;;;8.70;;
15120;SDS011;7661;48.904;9.414;2022-08-26T12:53:44;24.47;;;9.30;;
15120;SDS011;7661;48.904;9.414;2022-08-26T12:56:18;19.80;;;9.23;;
15120;SDS011;7661;48.904;9.414;2022-08-26T12:59:05;20.80;;;9.70;;
15120;SDS011;7661;48.904;9.414;2022-08-26T13:01:43;19.10;;;8.80;;
15120;SDS011;7661;48.904;9.414;2022-08-26T13:07:12;19.00;;;7.47;;
15120;SDS011;7661;48.904;9.414;2022-08-26T13:09:40;19.73;;;8.70;;
15120;SDS011;7661;48.904;9.414;2022-08-26T13:12:07;14.67;;;7.50;;
15120;SDS011;7661;48.904;9.414;2022-08-26T13:14:35;16.73;;;7.40;;
15120;SDS011;7661;48.904;9.414;2022-08-26T13:17:04;19.07;;;7.90;;
15120;SDS011;7661;48.904;9.414;2022-08-26T13:19:31;18.70;;;8.60;;
15120;SDS011;7661;48.904;9.414;2022-08-26T13:21:58;18.30;;;7.60;;
15120;SDS011;7661;48.904;9.414;2022-08-26T13:24:29;16.43;;;7.93;;
15120;SDS011;7661;48.904;9.414;2022-08-26T13:26:59;24.23;;;8.47;;
15120;SDS011;7661;48.904;9.414;2022-08-26T13:29:27;22.47;;;8.33;;
15120;SDS011;7661;48.904;9.414;2022-08-26T13:31:54;21.00;;;7.70;;
15120;SDS011;7661;48.904;9.414;2022-08-26T13:34:21;28.57;;;8.20;;
15120;SDS011;7661;48.904;9.414;2022-08-26T13:36:49;17.83;;;7.30;;
15120;SDS011;7661;48.904;9.414;2022-08-26T13:39:18;16.20;;;7.93;;
15120;SDS011;7661;48.904;9.414;2022-08-26T13:41:47;13.67;;;8.50;;
15120;SDS011;7661;48.904;9.414;2022-08-26T13:44:14;15.53;;;7.97;;
15120;SDS011;7661;48.904;9.414;2022-08-26T13:46:41;20.90;;;8.57;;
15120;SDS011;7661;48.904;9.414;2022-08-26T13:49:09;18.10;;;7.80;;
15120;SDS011;7661;48.904;9.414;2022-08-26T13:51:36;23.30;;;7.93;;
15120;SDS011;7661;48.904;9.414;2022-08-26T13:54:04;24.67;;;8.40;;
15120;SDS011;7661;48.904;9.414;2022-08-26T13:56:31;27.03;;;8.47;;
15120;SDS011;7661;48.904;9.414;2022-08-26T13:59:00;19.20;;;8.30;;
15120;SDS011;7661;48.904;9.414;2022-08-26T14:01:28;20.13;;;7.30;;
15120;SDS011;7661;48.904;9.414;2022-08-26T14:03:56;16.77;;;7.90;;
15120;SDS011;7661;48.904;9.414;2022-08-26T14:06:24;19.97;;;9.00;;
15120;SDS011;7661;48.904;9.414;2022-08-26T14:08:51;29.90;;;8.73;;
15120;SDS011;7661;48.904;9.414;2022-08-26T14:11:18;19.83;;;8.47;;
15120;SDS011;7661;48.904;9.414;2022-08-26T14:13:46;21.03;;;7.87;;
15120;SDS011;7661;48.904;9.414;2022-08-26T14:16:15;21.10;;;7.70;;
15120;SDS011;7661;48.904;9.414;2022-08-26T14:18:47;29.43;;;8.27;;
15120;SDS011;7661;48.904;9.414;2022-08-26T14:21:15;19.77;;;6.80;;
15120;SDS011;7661;48.904;9.414;2022-08-26T14:23:42;22.80;;;7.93;;
15120;SDS011;7661;48.904;9.414;2022-08-26T14:26:08;19.80;;;7.00;;
15120;SDS011;7661;48.904;9.414;2022-08-26T14:28:35;13.20;;;6.83;;
15120;SDS011;7661;48.904;9.414;2022-08-26T14:31:03;25.60;;;7.50;;
15120;SDS011;7661;48.904;9.414;2022-08-26T14:33:33;17.23;;;6.67;;
15120;SDS011;7661;48.904;9.414;2022-08-26T14:36:02;18.10;;;6.73;;
15120;SDS011;7661;48.904;9.414;2022-08-26T14:38:48;27.37;;;7.43;;
15120;SDS011;7661;48.904;9.414;2022-08-26T14:41:16;32.90;;;6.87;;
15120;SDS011;7661;48.904;9.414;2022-08-26T14:43:44;20.30;;;6.53;;
15120;SDS011;7661;48.904;9.414;2022-08-26T14:46:14;16.73;;;6.60;;
15120;SDS011;7661;48.904;9.414;2022-08-26T14:48:43;16.63;;;6.20;;
15120;SDS011;7661;48.904;9.414;2022-08-26T14:51:10;22.50;;;6.63;;
15120;SDS011;7661;48.904;9.414;2022-08-26T14:53:37;18.57;;;6.53;;
15120;SDS011;7661;48.904;9.414;2022-08-26T14:56:21;17.60;;;6.47;;
15120;SDS011;7661;48.904;9.414;2022-08-26T14:58:49;14.20;;;6.07;;
15120;SDS011;7661;48.904;9.414;2022-08-26T15:01:16;20.77;;;6.40;;
15120;SDS011;7661;48.904;9.414;2022-08-26T15:03:44;15.57;;;5.80;;
15120;SDS011;7661;48.904;9.414;2022-08-26T15:06:11;16.40;;;6.20;;
15120;SDS011;7661;48.904;9.414;2022-08-26T15:08:40;22.03;;;6.90;;
15120;SDS011;7661;48.904;9.414;2022-08-26T15:11:07;17.30;;;6.67;;
15120;SDS011;7661;48.904;9.414;2022-08-26T15:13:34;20.50;;;6.93;;
15120;SDS011;7661;48.904;9.414;2022-08-26T15:16:01;16.90;;;6.53;;
15120;SDS011;7661;48.904;9.414;2022-08-26T15:18:28;21.40;;;7.60;;
15120;SDS011;7661;48.904;9.414;2022-08-26T15:20:57;29.30;;;7.77;;
15120;SDS011;7661;48.904;9.414;2022-08-26T15:23:24;16.80;;;7.30;;
15120;SDS011;7661;48.904;9.414;2022-08-26T15:25:51;24.77;;;7.07;;
15120;SDS011;7661;48.904;9.414;2022-08-26T15:28:17;18.00;;;7.67;;
15120;SDS011;7661;48.904;9.414;2022-08-26T15:30:44;17.77;;;7.13;;
15120;SDS011;7661;48.904;9.414;2022-08-26T15:33:11;17.40;;;7.93;;
15120;SDS011;7661;48.904;9.414;2022-08-26T15:35:38;22.07;;;7.30;;
15120;SDS011;7661;48.904;9.414;2022-08-26T15:38:06;21.83;;;7.77;;